Time;durP1;ratioP1;P1;durP2;ratioP2;P2;SDS_P1;SDS_P2;PMS_P1;PMS_P2;Temp;Humidity;BMP_temperature;BMP_pressure;BME280_temperature;BME280_humidity;BME280_pressure;Samples;Min_cycle;Max_cycle;Signal;HPM_P1;HPM_P2
2022/03/26 05:33:31;;;;;;;21.42;10.13;;;;;;;8.47;49.08;101562.56;5606293;31;126445;-53
2022/03/26 05:36:34;;;;;;;20.60;10.60;;;;;;;8.47;49.08;101562.56;5601955;31;33259;-54
2022/03/26 05:39:37;;;;;;;19.65;10.02;;;;;;;8.20;48.64;101564.94;5602627;31;32640;-54
2022/03/26 05:42:39;;;;;;;22.10;11.25;;;;;;;8.18;49.12;101567.03;5602407;31;33598;-54
2022/03/26 05:45:41;;;;;;;19.23;10.57;;;;;;;8.33;48.75;101563.88;5601455;31;34239;-54
2022/03/26 05:48:45;;;;;;;23.25;10.30;;;;;;;8.51;48.51;101570.94;5601214;31;33631;-54
2022/03/26 05:51:47;;;;;;;20.10;10.77;;;;;;;8.61;48.08;101579.97;5603478;31;33131;-54
2022/03/26 05:54:50;;;;;;;21.10;10.45;;;;;;;8.73;47.90;101571.91;5602385;31;33544;-54
2022/03/26 05:57:52;;;;;;;16.83;10.93;;;;;;;8.81;47.88;101579.56;5603310;31;33622;-54
2022/03/26 06:00:55;;;;;;;23.38;12.02;;;;;;;9.07;47.27;101580.84;5603622;31;33795;-54
2022/03/26 06:03:57;;;;;;;19.55;11.30;;;;;;;9.24;46.66;101572.84;5603650;31;33317;-55
2022/03/26 06:06:59;;;;;;;17.65;11.35;;;;;;;9.34;46.50;101582.91;5601160;31;34169;-54
2022/03/26 06:10:03;;;;;;;17.58;11.05;;;;;;;9.53;45.65;101572.75;5583965;31;34352;-54
2022/03/26 06:13:05;;;;;;;22.83;12.55;;;;;;;9.65;45.66;101581.50;5582515;32;33221;-54
2022/03/26 06:16:07;;;;;;;20.10;11.65;;;;;;;9.72;45.65;101573.31;5580730;31;34381;-54
2022/03/26 06:19:11;;;;;;;19.58;12.30;;;;;;;9.80;45.42;101579.09;5573884;32;33659;-54
2022/03/26 06:22:13;;;;;;;20.33;12.82;;;;;;;10.05;44.82;101573.25;5583927;32;33539;-54
2022/03/26 06:25:15;;;;;;;23.55;13.07;;;;;;;10.20;44.28;101569.97;5583414;31;34372;-54
2022/03/26 06:28:19;;;;;;;24.95;12.40;;;;;;;10.26;44.52;101576.22;5582606;32;33560;-54
2022/03/26 06:31:22;;;;;;;18.45;11.32;;;;;;;10.35;44.37;101580.09;5563696;32;33322;-54
2022/03/26 06:34:25;;;;;;;18.25;12.45;;;;;;;10.41;44.42;101570.25;5562699;32;33593;-55
2022/03/26 06:37:28;;;;;;;18.60;12.80;;;;;;;10.65;43.91;101576.97;5564350;32;33852;-54
2022/03/26 06:40:31;;;;;;;19.87;12.65;;;;;;;10.78;43.34;101579.25;5579568;31;34292;-54
2022/03/26 06:43:34;;;;;;;19.05;12.90;;;;;;;10.93;43.26;101581.31;5572958;31;33401;-54
2022/03/26 06:46:37;;;;;;;19.73;12.50;;;;;;;11.04;43.01;101579.53;5570400;32;33646;-55
2022/03/26 06:49:41;;;;;;;26.48;14.15;;;;;;;11.10;43.22;101591.12;5567661;32;33727;-54
2022/03/26 06:52:44;;;;;;;21.25;13.25;;;;;;;11.20;43.64;101585.87;5569590;32;33405;-55
2022/03/26 06:55:46;;;;;;;22.08;13.45;;;;;;;11.44;42.70;101587.13;5570333;32;33243;-54
2022/03/26 06:58:48;;;;;;;20.33;14.20;;;;;;;11.59;42.64;101585.63;5564010;32;33644;-54
2022/03/26 07:01:51;;;;;;;27.48;15.27;;;;;;;11.65;42.63;101587.28;5564313;32;33650;-55
2022/03/26 07:04:54;;;;;;;22.73;15.25;;;;;;;11.78;42.44;101589.53;5563625;32;33281;-55
2022/03/26 07:07:57;;;;;;;25.88;15.10;;;;;;;11.82;42.75;101593.34;5568403;32;34402;-54
2022/03/26 07:10:59;;;;;;;25.10;16.33;;;;;;;11.94;42.04;101595.84;5569226;32;33559;-54
2022/03/26 07:14:01;;;;;;;27.33;14.70;;;;;;;12.02;42.45;101592.69;5551261;32;33418;-55
2022/03/26 07:17:04;;;;;;;23.02;15.60;;;;;;;12.28;41.06;101596.31;5555086;32;33619;-54
2022/03/26 07:20:07;;;;;;;35.53;16.52;;;;;;;12.35;41.10;101599.59;5564848;32;33804;-54
2022/03/26 07:23:10;;;;;;;32.97;17.30;;;;;;;12.45;40.68;101598.81;5559604;32;33708;-55
2022/03/26 07:26:12;;;;;;;28.25;16.45;;;;;;;12.56;39.95;101591.59;6126067;26;34370;-90
2022/03/26 07:29:14;;;;;;;26.83;15.27;;;;;;;12.59;38.98;101586.50;5540141;32;33468;-89
2022/03/26 07:32:22;;;;;;;26.08;16.27;;;;;;;12.60;38.88;101589.97;5542633;32;33776;-90
2022/03/26 07:35:25;;;;;;;26.27;16.33;;;;;;;12.75;38.99;101594.59;5538712;32;33668;-90
2022/03/26 07:38:27;;;;;;;29.08;16.70;;;;;;;12.84;38.68;101587.62;5538585;32;34292;-90
2022/03/26 07:41:30;;;;;;;24.52;16.85;;;;;;;12.82;38.79;101587.09;5521637;32;33489;-90
2022/03/26 07:44:33;;;;;;;33.67;16.65;;;;;;;12.84;38.37;101591.12;5529822;32;33984;-89
2022/03/26 07:47:36;;;;;;;31.12;17.00;;;;;;;12.92;38.59;101593.31;5529891;32;33562;-90
2022/03/26 07:50:39;;;;;;;29.10;16.95;;;;;;;13.02;38.17;101592.53;5540422;32;33319;-89
2022/03/26 07:53:42;;;;;;;30.30;16.62;;;;;;;13.08;38.52;101599.53;5549375;32;33685;-89
2022/03/26 07:56:45;;;;;;;33.80;16.87;;;;;;;13.17;38.04;101595.22;5507326;32;34085;-90
2022/03/26 07:59:48;;;;;;;27.65;16.00;;;;;;;13.24;37.69;101596.84;5549405;32;33605;-90
2022/03/26 08:02:50;;;;;;;32.58;17.12;;;;;;;13.18;37.64;101590.66;5549333;32;34341;-90
2022/03/26 08:05:52;;;;;;;32.45;17.48;;;;;;;13.37;37.52;101594.47;5534266;32;32486;-90
2022/03/26 08:08:54;;;;;;;24.80;16.37;;;;;;;13.46;37.40;101592.03;5548714;32;33728;-90
2022/03/26 08:11:57;;;;;;;26.87;16.58;;;;;;;13.49;37.70;101588.81;5546622;32;33302;-89
2022/03/26 08:14:59;;;;;;;26.02;16.85;;;;;;;13.63;37.20;101581.78;5529776;32;34230;-90
2022/03/26 08:18:05;;;;;;;28.52;18.42;;;;;;;13.77;36.87;101581.22;5518915;32;33542;-90
2022/03/26 08:21:07;;;;;;;40.40;17.77;;;;;;;13.99;37.12;101573.66;5548201;32;33601;-90
2022/03/26 08:24:09;;;;;;;30.05;18.90;;;;;;;14.09;37.91;101572.81;5548332;32;35150;-89
2022/03/26 08:27:12;;;;;;;36.42;19.00;;;;;;;14.32;37.64;101571.38;5548877;32;34413;-89
2022/03/26 08:30:17;;;;;;;30.92;18.75;;;;;;;14.49;37.31;101566.44;5534416;32;34283;-90
2022/03/26 08:33:19;;;;;;;34.60;19.98;;;;;;;14.73;35.93;101565.81;5548313;32;34426;-90
2022/03/26 08:36:23;;;;;;;25.65;18.37;;;;;;;14.79;35.79;101570.91;5534735;32;34251;-91
2022/03/26 08:39:26;;;;;;;29.45;17.95;;;;;;;14.87;35.35;101569.53;5531269;32;33632;-89
2022/03/26 08:42:28;;;;;;;27.87;18.20;;;;;;;14.88;35.65;101567.62;5548849;32;34019;-89
2022/03/26 08:45:30;;;;;;;29.42;17.85;;;;;;;14.93;34.87;101573.81;5545003;32;34204;-87
2022/03/26 08:48:33;;;;;;;34.72;19.85;;;;;;;15.00;35.79;101577.00;5535121;32;33912;-88
2022/03/26 08:51:35;;;;;;;22.92;16.15;;;;;;;15.05;36.24;101578.84;5533211;32;33482;-87
2022/03/26 08:54:38;;;;;;;32.95;21.35;;;;;;;15.30;37.62;101574.31;5546738;32;33248;-88
2022/03/26 08:57:41;;;;;;;37.78;21.00;;;;;;;15.35;35.92;101572.41;5546158;32;33635;-88
2022/03/26 09:00:47;;;;;;;31.33;19.98;;;;;;;15.24;36.18;101576.28;5548703;32;34336;-88
2022/03/26 09:03:50;;;;;;;28.10;21.52;;;;;;;15.42;35.73;101574.78;5534892;32;34373;-88
2022/03/26 09:06:53;;;;;;;32.80;21.87;;;;;;;15.47;35.73;101570.13;5548310;32;33612;-88
2022/03/26 09:09:55;;;;;;;34.00;22.52;;;;;;;15.51;35.94;101573.06;5548845;32;34281;-88
2022/03/26 09:12:58;;;;;;;32.78;20.67;;;;;;;15.48;35.89;101570.94;5548676;32;34278;-88
2022/03/26 09:16:00;;;;;;;32.95;21.42;;;;;;;15.62;34.82;101571.88;5544439;32;34211;-89
2022/03/26 09:19:03;;;;;;;32.72;21.23;;;;;;;15.63;34.52;101564.56;5529100;32;33618;-88
2022/03/26 09:22:06;;;;;;;31.75;20.92;;;;;;;15.69;34.79;101563.47;5515055;32;33031;-88
2022/03/26 09:25:08;;;;;;;31.67;20.40;;;;;;;15.72;34.41;101568.31;5515201;32;34371;-88
2022/03/26 09:28:11;;;;;;;32.95;20.02;;;;;;;15.78;34.54;101566.38;5528755;32;33308;-88
2022/03/26 09:31:13;;;;;;;27.55;19.35;;;;;;;15.76;34.35;101561.25;5528893;32;33589;-88
2022/03/26 09:34:15;;;;;;;35.60;20.65;;;;;;;15.93;34.38;101566.22;5528885;32;33701;-88
2022/03/26 09:37:18;;;;;;;28.90;20.60;;;;;;;16.03;33.70;101560.69;5528961;32;33820;-88
2022/03/26 09:40:22;;;;;;;31.20;18.00;;;;;;;16.06;34.38;101549.31;5528815;32;34248;-88
2022/03/26 09:43:28;;;;;;;29.50;19.58;;;;;;;16.17;35.66;101555.37;5514775;32;33508;-88
2022/03/26 09:46:31;;;;;;;26.30;18.90;;;;;;;16.20;34.18;101550.22;5528874;32;34252;-88
2022/03/26 09:49:36;;;;;;;25.98;17.42;;;;;;;16.24;33.55;101549.63;5514358;32;33543;-88
2022/03/26 09:52:39;;;;;;;28.25;17.90;;;;;;;16.29;33.35;101544.97;5514555;32;33422;-88
2022/03/26 09:55:43;;;;;;;25.75;16.70;;;;;;;16.42;33.65;101536.13;5528999;32;33862;-87
2022/03/26 09:58:45;;;;;;;37.08;18.73;;;;;;;16.48;32.86;101544.16;5514303;32;34439;-88
2022/03/26 10:01:48;;;;;;;31.85;17.20;;;;;;;16.61;32.86;101538.03;5528524;32;34690;-88
2022/03/26 10:04:51;;;;;;;27.55;18.40;;;;;;;16.74;32.01;101531.09;5528364;32;33562;-88
2022/03/26 10:07:53;;;;;;;27.95;16.17;;;;;;;16.71;31.93;101531.66;5514433;32;34100;-88
2022/03/26 10:10:56;;;;;;;23.80;16.37;;;;;;;16.64;31.62;101532.03;5514148;32;33631;-88
2022/03/26 10:13:59;;;;;;;24.60;14.73;;;;;;;16.68;32.04;101527.63;5528624;32;34415;-87
2022/03/26 10:17:37;;;;;;;21.55;14.30;;;;;;;16.77;31.81;101525.13;5528186;32;34319;-88
2022/03/26 10:20:39;;;;;;;26.15;14.38;;;;;;;17.03;31.11;101523.62;5530455;32;34380;-88
2022/03/26 10:23:43;;;;;;;25.10;13.43;;;;;;;17.00;32.58;101520.69;5550353;32;34308;-88
2022/03/26 10:26:45;;;;;;;22.37;14.45;;;;;;;17.11;31.75;101512.09;5549832;32;33323;-88
2022/03/26 10:29:55;;;;;;;26.45;13.82;;;;;;;17.21;30.70;101505.69;5550335;32;34341;-88
2022/03/26 10:32:57;;;;;;;20.92;13.43;;;;;;;17.20;31.46;101506.81;5550271;32;33633;-88
2022/03/26 10:36:03;;;;;;;23.80;13.52;;;;;;;17.26;30.60;101502.91;5550233;32;34351;-88
2022/03/26 10:39:13;;;;;;;19.45;10.68;;;;;;;17.35;29.91;101503.84;5550065;32;34466;-87
2022/03/26 10:42:15;;;;;;;21.62;11.95;;;;;;;17.45;28.89;101491.19;5536035;32;33685;-88
2022/03/26 10:45:17;;;;;;;13.88;8.32;;;;;;;17.45;29.34;101488.47;5536095;32;33221;-87
2022/03/26 10:48:30;;;;;;;12.35;7.87;;;;;;;17.54;28.49;101476.66;5550232;32;33666;-88
2022/03/26 10:51:38;;;;;;;13.38;7.37;;;;;;;17.56;26.29;101488.00;5516955;32;34005;-87
2022/03/26 10:54:41;;;;;;;12.98;6.93;;;;;;;17.65;27.00;101485.41;5530671;32;33748;-88
2022/03/26 10:57:45;;;;;;;12.65;6.95;;;;;;;17.59;25.51;101470.34;5515612;32;33681;-87
2022/03/26 11:00:48;;;;;;;13.38;6.95;;;;;;;17.66;25.19;101465.31;5530156;32;33649;-88
2022/03/26 11:03:50;;;;;;;12.75;6.20;;;;;;;17.72;24.73;101471.44;5530463;32;33763;-88
2022/03/26 11:06:53;;;;;;;11.38;6.60;;;;;;;17.73;24.95;101467.63;5530537;32;33831;-88
2022/03/26 11:09:57;;;;;;;15.52;6.40;;;;;;;17.72;25.33;101458.69;5530731;32;33793;-88
2022/03/26 11:13:01;;;;;;;11.57;6.05;;;;;;;17.77;26.38;101458.59;5530269;32;34343;-88
2022/03/26 11:16:07;;;;;;;13.18;7.10;;;;;;;17.86;25.40;101461.41;5530605;32;33683;-88
2022/03/26 11:19:48;;;;;;;27.83;7.55;;;;;;;17.91;25.00;101457.78;5530145;32;33609;-88
2022/03/26 11:23:01;;;;;;;14.85;7.47;;;;;;;17.92;24.66;101454.78;5514995;32;33369;-88
2022/03/26 11:26:22;;;;;;;11.65;7.18;;;;;;;17.98;25.17;101444.63;5530130;32;32905;-88
2022/03/26 11:29:41;;;;;;;11.50;6.50;;;;;;;18.02;26.18;101456.50;5516229;32;33643;-88
2022/03/26 11:32:45;;;;;;;13.10;6.95;;;;;;;18.05;24.87;101451.25;5516016;32;34860;-89
2022/03/26 11:35:59;;;;;;;14.07;7.12;;;;;;;17.93;24.08;101448.25;5535775;32;33757;-88
2022/03/26 11:39:13;;;;;;;17.90;7.68;;;;;;;17.97;24.28;101438.38;5535426;32;33286;-88
2022/03/26 11:42:33;;;;;;;15.75;8.02;;;;;;;17.83;21.70;101435.69;5549407;32;34356;-88
2022/03/26 11:52:36;;;;;;;;;;;;;;;17.90;22.02;101423.63;5549551;32;34457;-88
2022/03/26 11:55:44;;;;;;;17.37;10.32;;;;;;;18.03;21.69;101415.47;5549729;32;32463;-88
2022/03/26 11:59:02;;;;;;;18.08;11.10;;;;;;;18.06;21.83;101412.16;5549153;32;34419;-88
2022/03/26 12:02:25;;;;;;;19.02;11.68;;;;;;;18.04;27.22;101408.94;5549266;32;34162;-88
2022/03/26 12:08:53;;;;;;;20.35;12.55;;;;;;;18.10;20.61;101411.53;5549749;32;33578;-88
2022/03/26 12:12:15;;;;;;;19.42;12.63;;;;;;;18.10;21.27;101400.69;5535666;32;33558;-87
2022/03/26 12:15:17;;;;;;;25.42;14.23;;;;;;;18.14;21.30;101405.19;5549602;32;33779;-87
2022/03/26 12:18:31;;;;;;;21.98;13.93;;;;;;;18.13;21.46;101405.50;5549576;32;34329;-87
2022/03/26 12:21:49;;;;;;;36.05;14.95;;;;;;;18.13;22.35;101391.94;5549119;32;34426;-88
2022/03/26 12:24:53;;;;;;;23.55;13.75;;;;;;;18.10;21.35;101397.97;5549329;32;34165;-88
2022/03/26 12:27:55;;;;;;;20.67;13.80;;;;;;;17.93;21.24;101391.28;5549421;32;33666;-87
